createdAt,value
2023-01-21T00:02:13.490Z,100.00
2023-01-21T00:04:42.156Z,100.00
2023-01-21T00:07:10.406Z,100.00
2023-01-21T00:09:40.984Z,100.00
2023-01-21T00:12:09.281Z,100.00
2023-01-21T00:14:37.788Z,100.00
2023-01-21T00:17:06.365Z,100.00
2023-01-21T00:19:34.928Z,100.00
2023-01-21T00:22:03.311Z,100.00
2023-01-21T00:24:34.609Z,100.00
2023-01-21T00:27:04.716Z,100.00
2023-01-21T00:29:33.243Z,100.00
2023-01-21T00:32:01.453Z,100.00
2023-01-21T00:34:30.028Z,100.00
2023-01-21T00:36:58.231Z,100.00
2023-01-21T00:39:27.264Z,100.00
2023-01-21T00:41:55.493Z,100.00
2023-01-21T00:44:26.438Z,100.00
2023-01-21T00:46:54.697Z,100.00
2023-01-21T00:49:23.326Z,100.00
2023-01-21T00:51:54.665Z,100.00
2023-01-21T00:54:23.147Z,100.00
2023-01-21T00:56:51.601Z,100.00
2023-01-21T00:59:20.137Z,100.00
2023-01-21T01:01:49.913Z,100.00
2023-01-21T01:04:18.412Z,100.00
2023-01-21T01:06:46.654Z,100.00
2023-01-21T01:09:15.253Z,100.00
2023-01-21T01:11:43.432Z,100.00
2023-01-21T01:14:11.955Z,100.00
2023-01-21T01:16:40.151Z,100.00
2023-01-21T01:19:11.200Z,100.00
2023-01-21T01:21:39.924Z,100.00
2023-01-21T01:24:09.555Z,100.00
2023-01-21T01:26:37.869Z,100.00
2023-01-21T01:29:06.939Z,100.00
2023-01-21T01:31:35.177Z,100.00
2023-01-21T01:34:03.783Z,100.00
2023-01-21T01:36:35.846Z,100.00
2023-01-21T01:39:04.518Z,100.00
2023-01-21T01:41:37.611Z,100.00
2023-01-21T01:44:08.148Z,100.00
2023-01-21T01:46:37.957Z,100.00
2023-01-21T01:49:13.775Z,100.00
2023-01-21T01:51:50.095Z,100.00
2023-01-21T01:54:23.381Z,100.00
2023-01-21T01:56:55.279Z,100.00
2023-01-21T01:59:24.667Z,100.00
2023-01-21T02:01:52.973Z,100.00
2023-01-21T02:04:24.410Z,100.00
2023-01-21T02:06:56.846Z,100.00
2023-01-21T02:09:29.929Z,100.00
2023-01-21T02:11:59.566Z,100.00
2023-01-21T02:14:28.655Z,100.00
2023-01-21T02:17:09.905Z,100.00
2023-01-21T02:20:20.058Z,100.00
2023-01-21T02:22:56.332Z,100.00
2023-01-21T02:26:23.739Z,100.00
2023-01-21T02:29:19.552Z,100.00
2023-01-21T02:32:16.958Z,100.00
2023-01-21T02:34:55.153Z,100.00
2023-01-21T02:37:35.620Z,100.00
2023-01-21T02:40:16.367Z,100.00
2023-01-21T02:42:47.786Z,100.00
2023-01-21T02:45:28.398Z,100.00
2023-01-21T02:48:06.245Z,100.00
2023-01-21T02:50:38.838Z,100.00
2023-01-21T02:53:07.454Z,100.00
2023-01-21T02:55:38.278Z,100.00
2023-01-21T02:58:12.071Z,100.00
2023-01-21T03:00:55.480Z,100.00
2023-01-21T03:03:44.487Z,100.00
2023-01-21T03:06:38.283Z,100.00
2023-01-21T03:09:18.897Z,100.00
2023-01-21T03:11:58.339Z,100.00
2023-01-21T03:14:51.152Z,100.00
2023-01-21T03:17:29.343Z,100.00
2023-01-21T03:20:04.013Z,100.00
2023-01-21T03:22:36.928Z,100.00
2023-01-21T03:25:09.014Z,100.00
2023-01-21T03:27:40.574Z,100.00
2023-01-21T03:34:04.227Z,100.00
2023-01-21T03:36:39.020Z,100.00
2023-01-21T03:39:14.460Z,100.00
2023-01-21T03:41:43.223Z,100.00
2023-01-21T03:44:11.767Z,100.00
2023-01-21T03:46:47.740Z,100.00
2023-01-21T03:49:21.978Z,100.00
2023-01-21T03:51:55.843Z,100.00
2023-01-21T03:54:25.719Z,100.00
2023-01-21T03:56:54.459Z,100.00
2023-01-21T03:59:22.739Z,100.00
2023-01-21T04:01:53.688Z,100.00
2023-01-21T04:04:22.008Z,100.00
2023-01-21T04:06:50.795Z,100.00
2023-01-21T04:09:19.027Z,99.98
2023-01-21T04:11:51.575Z,98.55
2023-01-21T04:14:20.347Z,99.15
2023-01-21T04:16:48.878Z,99.41
2023-01-21T04:19:17.184Z,99.28
2023-01-21T04:21:45.736Z,97.12
2023-01-21T04:24:14.028Z,95.01
2023-01-21T04:26:45.487Z,94.47
2023-01-21T04:29:15.117Z,93.96
2023-01-21T04:31:43.915Z,94.23
2023-01-21T04:34:12.602Z,95.02
2023-01-21T04:36:41.371Z,95.45
2023-01-21T04:39:11.528Z,95.74
2023-01-21T04:41:40.537Z,94.73
2023-01-21T04:44:09.127Z,94.64
2023-01-21T04:46:39.101Z,93.47
2023-01-21T04:49:07.603Z,93.31
2023-01-21T04:51:36.498Z,93.27
2023-01-21T04:54:04.912Z,94.12
2023-01-21T04:56:33.494Z,94.73
2023-01-21T04:59:01.807Z,95.89
2023-01-21T05:01:30.442Z,94.76
2023-01-21T05:04:00.065Z,94.58
2023-01-21T05:06:28.619Z,94.50
2023-01-21T05:08:57.050Z,93.98
2023-01-21T05:11:25.861Z,93.48
2023-01-21T05:13:54.132Z,91.50
2023-01-21T05:16:23.291Z,91.73
2023-01-21T05:18:51.531Z,91.14
2023-01-21T05:21:21.451Z,90.49
2023-01-21T05:23:49.704Z,89.30
2023-01-21T05:26:21.946Z,89.89
2023-01-21T05:28:50.198Z,90.46
2023-01-21T05:31:18.893Z,90.97
2023-01-21T05:33:47.283Z,91.27
2023-01-21T05:36:16.122Z,92.53
2023-01-21T05:38:46.017Z,91.55
2023-01-21T05:41:14.533Z,90.82
2023-01-21T05:43:42.746Z,90.62
2023-01-21T05:46:11.342Z,91.86
2023-01-21T05:48:39.688Z,92.01
2023-01-21T05:51:08.208Z,90.22
2023-01-21T05:53:36.725Z,89.94
2023-01-21T05:56:07.356Z,90.06
2023-01-21T05:58:36.718Z,90.42
2023-01-21T06:01:05.430Z,91.03
2023-01-21T06:03:33.746Z,90.81
2023-01-21T06:06:02.627Z,90.85
2023-01-21T06:08:30.965Z,91.60
2023-01-21T06:10:59.470Z,91.35
2023-01-21T06:13:29.303Z,91.03
2023-01-21T06:15:58.082Z,90.34
2023-01-21T06:18:26.548Z,90.51
2023-01-21T06:20:55.180Z,91.02
2023-01-21T06:23:23.381Z,90.63
2023-01-21T06:25:51.891Z,90.15
2023-01-21T06:28:20.482Z,90.41
2023-01-21T06:30:50.785Z,90.23
2023-01-21T06:33:19.103Z,89.79
2023-01-21T06:35:47.665Z,89.58
2023-01-21T06:38:16.137Z,89.88
2023-01-21T06:40:45.122Z,90.09
2023-01-21T06:43:13.315Z,90.07
2023-01-21T06:45:41.797Z,90.22
2023-01-21T06:48:11.957Z,90.63
2023-01-21T06:50:40.440Z,90.24
2023-01-21T06:53:08.659Z,90.91
2023-01-21T06:55:37.186Z,90.50
2023-01-21T06:58:05.465Z,91.77
2023-01-21T07:00:34.027Z,91.98
2023-01-21T07:03:02.548Z,91.78
2023-01-21T07:05:32.570Z,92.47
2023-01-21T07:08:00.765Z,92.60
2023-01-21T07:10:29.474Z,93.16
2023-01-21T07:12:57.664Z,92.57
2023-01-21T07:15:30.898Z,92.77
2023-01-21T07:17:59.169Z,93.48
2023-01-21T07:20:27.845Z,93.71
2023-01-21T07:22:57.452Z,92.45
2023-01-21T07:25:26.008Z,92.34
2023-01-21T07:27:54.191Z,93.23
2023-01-21T07:30:22.892Z,93.65
2023-01-21T07:32:51.084Z,93.45
2023-01-21T07:35:19.868Z,93.74
2023-01-21T07:37:48.728Z,93.52
2023-01-21T07:40:19.259Z,94.94
2023-01-21T07:42:52.268Z,95.30
2023-01-21T07:45:21.564Z,93.91
2023-01-21T07:47:50.556Z,93.34
2023-01-21T07:50:19.261Z,93.41
2023-01-21T07:52:47.484Z,94.68
2023-01-21T07:55:17.359Z,93.30
2023-01-21T07:57:47.072Z,92.87
2023-01-21T08:00:16.692Z,92.25
2023-01-21T08:02:45.000Z,91.79
2023-01-21T08:05:13.593Z,93.11
2023-01-21T08:07:41.783Z,93.07
2023-01-21T08:10:11.300Z,91.86
2023-01-21T08:12:41.502Z,91.61
2023-01-21T08:15:12.452Z,91.49
2023-01-21T08:17:41.293Z,91.39
2023-01-21T08:20:11.775Z,93.10
2023-01-21T08:22:40.744Z,93.98
2023-01-21T08:25:10.798Z,94.43
2023-01-21T08:27:39.210Z,94.10
2023-01-21T08:30:09.103Z,92.77
2023-01-21T08:32:39.038Z,92.84
2023-01-21T08:35:08.914Z,93.78
2023-01-21T08:37:37.146Z,93.38
2023-01-21T08:40:07.573Z,93.90
2023-01-21T08:42:35.749Z,94.36
2023-01-21T08:45:04.652Z,94.39
2023-01-21T08:47:32.892Z,94.05
2023-01-21T08:50:03.513Z,93.96
2023-01-21T08:52:31.745Z,94.36
2023-01-21T08:55:00.259Z,94.73
2023-01-21T08:57:28.813Z,94.72
2023-01-21T08:59:57.366Z,94.37
2023-01-21T09:02:25.598Z,94.54
2023-01-21T09:04:54.632Z,94.96
2023-01-21T09:07:24.211Z,96.13
2023-01-21T09:09:52.707Z,96.43
2023-01-21T09:12:20.998Z,96.39
2023-01-21T09:14:49.549Z,96.64
2023-01-21T09:17:18.197Z,97.19
2023-01-21T09:19:46.984Z,97.55
2023-01-21T09:22:15.246Z,97.83
2023-01-21T09:24:45.904Z,97.79
2023-01-21T09:27:14.144Z,96.90
2023-01-21T09:29:42.805Z,97.46
2023-01-21T09:32:11.087Z,97.54
2023-01-21T09:34:39.628Z,97.47
2023-01-21T09:37:07.808Z,97.42
2023-01-21T09:39:36.266Z,98.18
2023-01-21T09:42:06.662Z,98.26
2023-01-21T09:44:40.027Z,98.69
2023-01-21T09:47:18.555Z,99.15
2023-01-21T09:49:51.246Z,99.24
2023-01-21T09:52:27.506Z,98.98
2023-01-21T09:54:57.184Z,99.00
2023-01-21T09:57:51.304Z,99.73
2023-01-21T10:00:37.974Z,100.00
2023-01-21T10:03:21.909Z,100.00
2023-01-21T10:06:02.819Z,100.00
2023-01-21T10:08:42.256Z,99.44
2023-01-21T10:11:29.259Z,99.16
2023-01-21T10:14:12.633Z,98.39
2023-01-21T10:16:47.122Z,98.33
2023-01-21T10:19:22.581Z,99.16
2023-01-21T10:21:55.844Z,100.00
2023-01-21T10:24:28.004Z,100.00
2023-01-21T10:26:57.319Z,99.65
2023-01-21T10:29:28.597Z,99.21
2023-01-21T10:32:01.343Z,100.00
2023-01-21T10:34:31.800Z,100.00
2023-01-21T10:37:13.587Z,100.00
2023-01-21T10:39:50.482Z,100.00
2023-01-21T10:42:45.591Z,99.91
2023-01-21T10:45:26.722Z,99.74
2023-01-21T10:48:02.972Z,99.58
2023-01-21T10:50:41.776Z,99.05
2023-01-21T10:53:20.432Z,98.97
2023-01-21T10:56:05.974Z,99.64
2023-01-21T10:58:38.616Z,98.88
2023-01-21T11:01:16.423Z,98.96
2023-01-21T11:03:47.877Z,99.38
2023-01-21T11:06:19.442Z,99.85
2023-01-21T11:08:51.584Z,100.00
2023-01-21T11:11:28.157Z,100.00
2023-01-21T11:13:57.481Z,100.00
2023-01-21T11:16:43.358Z,100.00
2023-01-21T11:19:15.469Z,100.00
2023-01-21T11:21:59.482Z,100.00
2023-01-21T11:24:29.782Z,100.00
2023-01-21T11:27:00.569Z,100.00
2023-01-21T11:29:41.103Z,100.00
2023-01-21T11:32:19.584Z,100.00
2023-01-21T11:34:50.551Z,100.00
2023-01-21T11:37:25.179Z,100.00
2023-01-21T11:39:56.919Z,100.00
2023-01-21T11:42:26.270Z,100.00
2023-01-21T11:44:56.179Z,100.00
2023-01-21T11:47:38.716Z,99.94
2023-01-21T11:50:15.674Z,100.00
2023-01-21T11:52:44.483Z,99.93
2023-01-21T11:55:22.171Z,99.07
2023-01-21T11:57:53.730Z,98.09
2023-01-21T12:00:25.633Z,98.03
2023-01-21T12:02:59.680Z,98.44
2023-01-21T12:05:33.143Z,97.09
2023-01-21T12:08:04.655Z,97.05
2023-01-21T12:10:37.245Z,96.74
2023-01-21T12:13:28.455Z,97.38
2023-01-21T12:16:23.236Z,96.47
2023-01-21T12:19:16.477Z,96.03
2023-01-21T12:21:58.413Z,96.13
2023-01-21T12:24:40.340Z,95.13
2023-01-21T12:27:22.157Z,95.19
2023-01-21T12:30:01.054Z,95.17
2023-01-21T12:32:33.280Z,95.06
2023-01-21T12:35:08.856Z,94.79
2023-01-21T12:37:46.896Z,93.35
2023-01-21T12:40:20.676Z,92.71
2023-01-21T12:42:55.297Z,92.88
2023-01-21T12:45:31.923Z,93.00
2023-01-21T12:48:04.418Z,93.16
2023-01-21T12:50:39.816Z,94.48
2023-01-21T12:53:19.083Z,97.16
2023-01-21T12:56:03.912Z,99.36
2023-01-21T12:58:36.216Z,100.00
2023-01-21T13:01:10.008Z,100.00
2023-01-21T13:03:49.370Z,100.00
2023-01-21T13:06:29.529Z,100.00
2023-01-21T13:09:06.403Z,100.00
2023-01-21T13:11:40.200Z,100.00
2023-01-21T13:14:26.557Z,100.00
2023-01-21T13:17:00.402Z,100.00
2023-01-21T13:19:29.083Z,100.00
2023-01-21T13:22:05.841Z,100.00
2023-01-21T13:24:44.821Z,100.00
2023-01-21T13:27:21.467Z,100.00
2023-01-21T13:29:58.905Z,100.00
2023-01-21T13:32:38.000Z,100.00
2023-01-21T13:35:22.039Z,100.00
2023-01-21T13:38:02.346Z,100.00
2023-01-21T13:40:42.131Z,100.00
2023-01-21T13:43:18.107Z,100.00
2023-01-21T13:46:01.597Z,100.00
2023-01-21T13:48:46.863Z,100.00
2023-01-21T13:51:27.628Z,100.00
2023-01-21T13:54:12.522Z,100.00
2023-01-21T13:57:00.161Z,100.00
2023-01-21T13:59:35.877Z,100.00
2023-01-21T14:02:11.703Z,100.00
2023-01-21T14:04:45.502Z,100.00
2023-01-21T14:07:19.849Z,100.00
2023-01-21T14:09:55.458Z,100.00
2023-01-21T14:12:39.698Z,100.00
2023-01-21T14:15:38.137Z,100.00
2023-01-21T14:18:38.388Z,100.00
2023-01-21T14:21:22.083Z,100.00
2023-01-21T14:24:26.320Z,100.00
2023-01-21T14:27:15.126Z,100.00
2023-01-21T14:29:46.788Z,100.00
2023-01-21T14:32:21.715Z,100.00
2023-01-21T14:35:02.360Z,100.00
2023-01-21T14:37:35.354Z,100.00
2023-01-21T14:40:13.651Z,100.00
2023-01-21T14:42:45.887Z,100.00
2023-01-21T14:45:16.752Z,100.00
2023-01-21T14:47:54.510Z,100.00
2023-01-21T14:50:44.919Z,100.00
2023-01-21T14:53:18.053Z,100.00
2023-01-21T14:55:46.805Z,100.00
2023-01-21T14:58:24.733Z,100.00
2023-01-21T15:00:53.997Z,100.00
2023-01-21T15:03:28.512Z,100.00
2023-01-21T15:06:01.490Z,100.00
2023-01-21T15:08:33.552Z,100.00
2023-01-21T15:11:05.690Z,100.00
2023-01-21T15:13:39.400Z,100.00
2023-01-21T15:16:17.325Z,100.00
2023-01-21T15:18:51.792Z,100.00
2023-01-21T15:21:38.116Z,100.00
2023-01-21T15:24:25.989Z,100.00
2023-01-21T15:27:17.592Z,100.00
2023-01-21T15:30:08.241Z,100.00
2023-01-21T15:32:39.267Z,100.00
2023-01-21T15:35:25.995Z,100.00
2023-01-21T15:38:02.942Z,100.00
2023-01-21T15:40:38.548Z,100.00
2023-01-21T15:43:16.439Z,100.00
2023-01-21T15:45:52.879Z,100.00
2023-01-21T15:48:45.361Z,100.00
2023-01-21T15:51:25.962Z,100.00
2023-01-21T15:54:09.772Z,100.00
2023-01-21T15:56:57.357Z,100.00
2023-01-21T15:59:51.877Z,100.00
2023-01-21T16:02:25.767Z,100.00
2023-01-21T16:05:13.838Z,100.00
2023-01-21T16:07:55.347Z,100.00
2023-01-21T16:10:32.836Z,100.00
2023-01-21T16:13:15.221Z,100.00
2023-01-21T16:15:57.566Z,100.00
2023-01-21T16:18:33.865Z,100.00
2023-01-21T16:21:04.611Z,100.00
2023-01-21T16:23:38.000Z,100.00
2023-01-21T16:26:06.630Z,100.00
2023-01-21T16:28:49.460Z,100.00
2023-01-21T16:31:18.569Z,100.00
2023-01-21T16:33:48.279Z,100.00
2023-01-21T16:36:17.332Z,100.00
2023-01-21T16:38:47.129Z,100.00
2023-01-21T16:41:24.411Z,100.00
2023-01-21T16:43:55.190Z,100.00
2023-01-21T16:46:27.081Z,100.00
2023-01-21T16:48:58.520Z,100.00
2023-01-21T16:51:31.060Z,100.00
2023-01-21T16:54:24.884Z,100.00
2023-01-21T16:56:59.641Z,100.00
2023-01-21T16:59:30.299Z,100.00
2023-01-21T17:02:00.410Z,100.00
2023-01-21T17:04:31.275Z,100.00
2023-01-21T17:07:01.530Z,100.00
2023-01-21T17:09:33.601Z,100.00
2023-01-21T17:12:07.867Z,100.00
2023-01-21T17:14:36.743Z,100.00
2023-01-21T17:17:09.464Z,100.00
2023-01-21T17:19:43.849Z,100.00
2023-01-21T17:22:16.284Z,100.00
2023-01-21T17:25:01.453Z,100.00
2023-01-21T17:27:31.782Z,100.00
2023-01-21T17:30:18.791Z,100.00
2023-01-21T17:32:54.535Z,100.00
2023-01-21T17:35:26.280Z,100.00
2023-01-21T17:37:56.896Z,100.00
2023-01-21T17:40:31.420Z,100.00
2023-01-21T17:43:02.043Z,100.00
2023-01-21T17:45:33.503Z,100.00
2023-01-21T17:48:14.110Z,100.00
2023-01-21T17:50:47.812Z,100.00
2023-01-21T17:53:23.489Z,100.00
2023-01-21T17:56:01.034Z,100.00
2023-01-21T17:58:50.443Z,100.00
2023-01-21T18:01:19.666Z,100.00
2023-01-21T18:03:48.933Z,100.00
2023-01-21T18:06:23.804Z,100.00
2023-01-21T18:08:53.290Z,100.00
2023-01-21T18:11:22.809Z,100.00
2023-01-21T18:13:52.669Z,100.00
2023-01-21T18:16:21.332Z,100.00
2023-01-21T18:18:50.815Z,100.00
2023-01-21T18:21:22.777Z,100.00
2023-01-21T18:23:51.573Z,100.00
2023-01-21T18:26:29.796Z,100.00
2023-01-21T18:28:58.325Z,100.00
2023-01-21T18:31:26.678Z,100.00
2023-01-21T18:33:55.699Z,100.00
2023-01-21T18:36:25.638Z,100.00
2023-01-21T18:38:54.157Z,100.00
2023-01-21T18:41:22.966Z,100.00
2023-01-21T18:43:51.514Z,100.00
2023-01-21T18:46:21.023Z,100.00
2023-01-21T18:48:49.913Z,100.00
2023-01-21T18:51:18.364Z,100.00
2023-01-21T18:53:48.608Z,100.00
2023-01-21T18:56:18.087Z,100.00
2023-01-21T18:58:47.453Z,100.00
2023-01-21T19:01:23.072Z,100.00
2023-01-21T19:03:55.208Z,100.00
2023-01-21T19:06:25.238Z,100.00
2023-01-21T19:08:56.675Z,100.00
2023-01-21T19:11:24.997Z,100.00
2023-01-21T19:13:53.693Z,100.00
2023-01-21T19:16:22.987Z,100.00
2023-01-21T19:18:51.897Z,100.00
2023-01-21T19:21:20.406Z,100.00
2023-01-21T19:23:49.116Z,100.00
2023-01-21T19:26:18.770Z,100.00
2023-01-21T19:28:47.522Z,100.00
2023-01-21T19:31:16.023Z,100.00
2023-01-21T19:33:45.917Z,100.00
2023-01-21T19:36:16.602Z,100.00
2023-01-21T19:38:54.167Z,100.00
2023-01-21T19:41:24.052Z,100.00
2023-01-21T19:43:53.165Z,100.00
2023-01-21T19:46:23.867Z,100.00
2023-01-21T19:48:53.871Z,100.00
2023-01-21T19:51:22.356Z,100.00
2023-01-21T19:53:50.902Z,100.00
2023-01-21T19:56:25.339Z,100.00
2023-01-21T19:58:54.498Z,100.00
2023-01-21T20:01:23.142Z,100.00
2023-01-21T20:04:00.062Z,100.00
2023-01-21T20:06:35.375Z,100.00
2023-01-21T20:09:04.603Z,100.00
2023-01-21T20:11:35.883Z,100.00
2023-01-21T20:14:04.607Z,100.00
2023-01-21T20:16:34.038Z,100.00
2023-01-21T20:19:03.754Z,100.00
2023-01-21T20:21:32.215Z,100.00
2023-01-21T20:24:00.791Z,100.00
2023-01-21T20:26:29.158Z,100.00
2023-01-21T20:29:01.419Z,100.00
2023-01-21T20:31:30.427Z,100.00
2023-01-21T20:33:59.029Z,100.00
2023-01-21T20:36:28.304Z,100.00
2023-01-21T20:38:57.350Z,100.00
2023-01-21T20:41:25.639Z,100.00
2023-01-21T20:43:54.497Z,100.00
2023-01-21T20:46:28.944Z,100.00
2023-01-21T20:48:58.707Z,100.00
2023-01-21T20:51:26.880Z,100.00
2023-01-21T20:53:55.590Z,100.00
2023-01-21T20:56:28.208Z,100.00
2023-01-21T20:58:58.492Z,100.00
2023-01-21T21:01:31.123Z,100.00
2023-01-21T21:03:59.756Z,100.00
2023-01-21T21:06:29.736Z,100.00
2023-01-21T21:08:58.480Z,100.00
2023-01-21T21:11:26.824Z,100.00
2023-01-21T21:13:56.206Z,100.00
2023-01-21T21:16:29.896Z,100.00
2023-01-21T21:18:59.538Z,100.00
2023-01-21T21:21:27.836Z,100.00
2023-01-21T21:23:56.440Z,100.00
2023-01-21T21:26:26.302Z,100.00
2023-01-21T21:28:56.303Z,100.00
2023-01-21T21:31:26.447Z,100.00
2023-01-21T21:33:56.425Z,100.00
2023-01-21T21:36:25.031Z,100.00
2023-01-21T21:38:56.182Z,100.00
2023-01-21T21:41:43.805Z,100.00
2023-01-21T21:44:13.208Z,100.00
2023-01-21T21:46:59.445Z,100.00
2023-01-21T21:49:30.025Z,100.00
2023-01-21T21:52:00.286Z,100.00
2023-01-21T21:54:29.031Z,100.00
2023-01-21T21:56:57.767Z,100.00
2023-01-21T21:59:27.665Z,100.00
2023-01-21T22:01:55.941Z,100.00
2023-01-21T22:04:24.404Z,100.00
2023-01-21T22:06:54.364Z,100.00
2023-01-21T22:09:23.451Z,100.00
2023-01-21T22:11:51.664Z,100.00
2023-01-21T22:14:20.120Z,100.00
2023-01-21T22:16:52.024Z,100.00
2023-01-21T22:19:20.666Z,100.00
2023-01-21T22:21:48.843Z,100.00
2023-01-21T22:24:19.193Z,100.00
2023-01-21T22:26:47.375Z,100.00
2023-01-21T22:29:15.816Z,100.00
2023-01-21T22:31:44.429Z,100.00
2023-01-21T22:34:13.862Z,100.00
2023-01-21T22:36:46.999Z,100.00
2023-01-21T22:39:15.731Z,100.00
2023-01-21T22:41:45.376Z,100.00
2023-01-21T22:44:13.870Z,100.00
2023-01-21T22:46:42.370Z,100.00
2023-01-21T22:49:11.818Z,100.00
2023-01-21T22:51:40.057Z,100.00
2023-01-21T22:54:08.871Z,100.00
2023-01-21T22:56:50.893Z,100.00
2023-01-21T22:59:22.024Z,100.00
2023-01-21T23:01:51.288Z,100.00
2023-01-21T23:04:20.288Z,100.00
2023-01-21T23:06:48.961Z,100.00
2023-01-21T23:09:19.021Z,100.00
2023-01-21T23:11:47.415Z,100.00
2023-01-21T23:14:17.260Z,100.00
2023-01-21T23:16:47.407Z,100.00
2023-01-21T23:19:16.400Z,100.00
2023-01-21T23:21:44.735Z,100.00
2023-01-21T23:24:14.127Z,100.00
2023-01-21T23:26:43.041Z,100.00
2023-01-21T23:29:11.721Z,100.00
2023-01-21T23:31:40.144Z,100.00
2023-01-21T23:34:14.186Z,100.00
2023-01-21T23:36:42.659Z,100.00
2023-01-21T23:39:11.440Z,100.00
2023-01-21T23:41:39.866Z,100.00
2023-01-21T23:44:10.604Z,100.00
2023-01-21T23:46:38.976Z,100.00
2023-01-21T23:49:08.135Z,100.00
2023-01-21T23:51:37.860Z,100.00
2023-01-21T23:54:06.606Z,100.00
2023-01-21T23:56:35.501Z,100.00
2023-01-21T23:59:04.352Z,100.00
